Carvalhopolis, Brazil
Current Conditions -  °F | °C
As of 9:00 AM on Saturday 25 Oct 2014 (Local Time) from SBGW Reporting Station
Broken Clouds Broken Clouds  
Wind Chill: 73°   Ceiling: 8000
Heat Index: 73°   Visibility: 6mi
Dew Point: 63°   Wind: 2mph
Humidity: 69%   Direction: 20°NNE
Pressure: 30"   Gusts: NA
Location:  21.78°S, 45.84°W
Report Text: SBGW 251100Z 02002KT 9000 FEW015 BKN080 23/17 Q1016
Loading
Personal Weather Stations






























Interactive Weather Map
Tropical Storm Tracking
New forecast layout! Learn more

10-Day Weather Forecast

Advertisements
Track Severe Weather on mobile